Naval Air Station/JRB, Texas
Current Conditions -  °F | °C
As of 3:52 AM on Saturday 25 Oct 2014 (Local Time) from KNFW Reporting Station
Clear Clear  
Wind Chill: 70°   Ceiling: Unl
Heat Index: 70°   Visibility: 10mi
Dew Point: 57°   Wind: 7mph
Humidity: 63%   Direction: 170°S
Pressure: 30.13"   Gusts: NA
Location:  32.7796°N, 97.4234°W
Report Text: KNFW 250852Z AUTO 17006KT 10SM CLR 21/14 A3013 RMK AO2 SLP186 T02110139 50000 CHINO N VISNO N $
Loading
Personal Weather Stations






























Interactive Weather Map
Tropical Storm Tracking
New forecast layout! Learn more

10-Day Weather Forecast

Advertisements
Track Severe Weather on mobile